Time;durP1;ratioP1;P1;durP2;ratioP2;P2;SDS_P1;SDS_P2;PMS_P1;PMS_P2;Temp;Humidity;BMP_temperature;BMP_pressure;BME280_temperature;BME280_humidity;BME280_pressure;Samples;Min_cycle;Max_cycle;Signal;HPM_P1;HPM_P2
2022/09/11 00:02:11;;;;;;;915.00;856.70;;;15.20;99.90;;;;;;5013593;28;20965;-84
2022/09/11 00:04:38;;;;;;;909.03;850.53;;;15.20;99.90;;;;;;5013052;28;20460;-84
2022/09/11 00:07:05;;;;;;;906.67;847.87;;;15.20;99.90;;;;;;5013674;28;20448;-84
2022/09/11 00:09:33;;;;;;;910.60;851.70;;;15.30;99.90;;;;;;5013316;28;20456;-83
2022/09/11 00:11:59;;;;;;;925.60;866.20;;;15.20;99.90;;;;;;5013750;28;20449;-84
2022/09/11 00:14:27;;;;;;;900.60;842.30;;;15.10;99.90;;;;;;5013576;28;20445;-83
2022/09/11 00:16:54;;;;;;;902.37;843.77;;;15.00;99.90;;;;;;5014330;28;20567;-84
2022/09/11 00:19:21;;;;;;;896.60;837.97;;;15.00;99.90;;;;;;5012945;28;20448;-83
2022/09/11 00:21:49;;;;;;;901.87;843.27;;;14.90;99.90;;;;;;5013118;28;20477;-84
2022/09/11 00:24:16;;;;;;;895.10;836.53;;;14.80;99.90;;;;;;5012978;28;20488;-84
2022/09/11 00:26:46;;;;;;;895.40;836.50;;;14.80;99.90;;;;;;5013309;28;20449;-83
2022/09/11 00:29:13;;;;;;;896.53;838.03;;;14.60;99.90;;;;;;5013509;28;20884;-83
2022/09/11 00:31:40;;;;;;;894.37;836.07;;;14.70;99.90;;;;;;5014132;28;20477;-84
2022/09/11 00:34:07;;;;;;;900.40;841.60;;;14.50;99.90;;;;;;5013325;28;20453;-84
2022/09/11 00:36:35;;;;;;;888.90;830.40;;;14.70;99.90;;;;;;5012969;28;20473;-84
2022/09/11 00:39:02;;;;;;;882.53;824.33;;;14.60;99.90;;;;;;5012995;28;20844;-84
2022/09/11 00:41:32;;;;;;;891.27;832.57;;;14.60;99.90;;;;;;5013097;28;20477;-84
2022/09/11 00:44:02;;;;;;;890.90;832.37;;;14.60;99.90;;;;;;5012736;28;20476;-82
2022/09/11 00:46:34;;;;;;;886.87;828.27;;;14.50;99.90;;;;;;5013008;28;20456;-84
2022/09/11 00:49:03;;;;;;;882.77;824.37;;;14.40;99.90;;;;;;5013042;28;20879;-83
2022/09/11 00:51:33;;;;;;;887.20;828.60;;;14.40;99.90;;;;;;5012759;28;20473;-84
2022/09/11 00:54:02;;;;;;;895.20;836.90;;;14.30;99.90;;;;;;5012762;28;20840;-84
2022/09/11 00:56:34;;;;;;;885.27;827.07;;;14.40;99.90;;;;;;5012625;28;20476;-84
2022/09/11 00:59:03;;;;;;;880.33;822.63;;;14.40;99.90;;;;;;5012450;28;20833;-84
2022/09/11 01:01:30;;;;;;;887.77;829.97;;;14.40;99.90;;;;;;5012519;28;20465;-84
2022/09/11 01:03:57;;;;;;;876.90;819.33;;;14.50;99.90;;;;;;5011638;28;20456;-84
2022/09/11 01:06:26;;;;;;;874.50;817.27;;;14.50;99.90;;;;;;5012345;28;20954;-84
2022/09/11 01:08:52;;;;;;;879.63;822.13;;;14.60;99.90;;;;;;5012757;28;20503;-84
2022/09/11 01:11:39;;;;;;;877.20;819.70;;;14.50;99.90;;;;;;5012049;28;20503;-84
2022/09/11 01:14:16;;;;;;;875.67;817.77;;;14.50;99.90;;;;;;5012318;28;20453;-84
2022/09/11 01:16:52;;;;;;;881.67;823.27;;;14.50;99.90;;;;;;5012249;28;20488;-85
2022/09/11 01:19:30;;;;;;;879.13;820.53;;;14.60;99.90;;;;;;5012648;28;20512;-85
2022/09/11 01:22:17;;;;;;;889.60;830.70;;;14.40;99.90;;;;;;5012193;28;20453;-84
2022/09/11 01:24:55;;;;;;;898.00;838.90;;;14.30;99.90;;;;;;5011893;28;20484;-85
2022/09/11 01:27:47;;;;;;;891.20;832.20;;;14.20;99.90;;;;;;5015861;28;20441;-84
2022/09/11 01:30:17;;;;;;;887.03;827.83;;;14.20;99.90;;;;;;5016242;28;20989;-84
2022/09/11 01:33:14;;;;;;;896.90;837.80;;;14.20;99.90;;;;;;5016542;28;20449;-84
2022/09/11 01:35:51;;;;;;;888.67;829.97;;;14.20;99.90;;;;;;5007376;28;20949;-84
2022/09/11 01:38:25;;;;;;;883.03;824.57;;;14.40;99.90;;;;;;5016469;28;20490;-85
2022/09/11 01:40:54;;;;;;;893.63;835.03;;;14.40;99.90;;;;;;5016095;28;20472;-84
2022/09/11 01:43:25;;;;;;;885.10;826.70;;;14.50;99.90;;;;;;5015934;28;20488;-84
2022/09/11 01:45:54;;;;;;;884.43;825.70;;;14.70;99.90;;;;;;5015629;28;20449;-84
2022/09/11 01:48:25;;;;;;;889.33;830.33;;;14.80;99.90;;;;;;5016073;28;20457;-84
2022/09/11 01:50:55;;;;;;;896.17;836.77;;;14.80;99.90;;;;;;5015974;28;20596;-84
2022/09/11 01:53:26;;;;;;;899.17;839.07;;;14.90;99.90;;;;;;5015895;28;20457;-85
2022/09/11 01:55:56;;;;;;;897.97;837.63;;;14.90;99.90;;;;;;5015599;28;20465;-84
2022/09/11 01:58:27;;;;;;;900.73;839.63;;;15.00;99.90;;;;;;5015911;28;20847;-84
2022/09/11 02:00:59;;;;;;;903.83;842.70;;;15.10;99.90;;;;;;5015700;28;20504;-84
2022/09/11 02:03:29;;;;;;;905.80;844.20;;;15.00;99.90;;;;;;5015715;28;20509;-84
2022/09/11 02:05:59;;;;;;;901.67;840.17;;;15.00;99.90;;;;;;5015198;28;20450;-84
2022/09/11 02:08:31;;;;;;;893.37;831.87;;;15.10;99.90;;;;;;5015931;28;20468;-84
2022/09/11 02:11:03;;;;;;;897.07;835.27;;;15.10;99.90;;;;;;5015381;28;20487;-84
2022/09/11 02:13:36;;;;;;;907.70;845.80;;;15.10;99.90;;;;;;5015974;28;20462;-84
2022/09/11 02:16:10;;;;;;;903.33;841.30;;;15.10;99.90;;;;;;5015277;28;20461;-84
2022/09/11 02:18:43;;;;;;;919.80;857.60;;;15.10;99.90;;;;;;5015777;28;20871;-84
2022/09/11 02:21:10;;;;;;;905.90;843.67;;;15.00;99.90;;;;;;5015622;28;20845;-84
2022/09/11 02:23:37;;;;;;;906.77;844.47;;;15.10;99.90;;;;;;5016039;28;20456;-84
2022/09/11 02:26:06;;;;;;;904.47;842.13;;;15.10;99.90;;;;;;5016789;28;20956;-84
2022/09/11 02:28:36;;;;;;;908.83;846.33;;;15.10;99.90;;;;;;5016423;28;20466;-84
2022/09/11 02:31:03;;;;;;;909.20;846.50;;;15.10;99.90;;;;;;5015153;28;20468;-84
2022/09/11 02:33:32;;;;;;;913.83;850.77;;;15.20;99.90;;;;;;5015010;28;20464;-84
2022/09/11 02:36:19;;;;;;;910.20;847.00;;;15.00;99.90;;;;;;5014787;28;20832;-84
2022/09/11 02:38:55;;;;;;;901.10;838.10;;;15.10;99.90;;;;;;5015912;28;20449;-84
2022/09/11 02:41:28;;;;;;;917.20;854.00;;;15.00;99.90;;;;;;5016436;28;20466;-84
2022/09/11 02:44:08;;;;;;;914.00;850.80;;;15.10;99.90;;;;;;5015108;28;20908;-84
2022/09/11 02:46:53;;;;;;;916.80;853.47;;;15.20;99.90;;;;;;5016153;28;20445;-84
2022/09/11 02:49:28;;;;;;;913.90;850.57;;;15.10;99.90;;;;;;5016368;28;20453;-83
2022/09/11 02:52:02;;;;;;;915.50;852.30;;;15.00;99.90;;;;;;5014788;28;20457;-83
2022/09/11 02:54:34;;;;;;;917.70;854.77;;;15.10;99.90;;;;;;5014820;28;20465;-83
2022/09/11 02:57:07;;;;;;;914.30;851.47;;;15.00;99.90;;;;;;5015529;28;20467;-84
2022/09/11 02:59:38;;;;;;;914.30;851.60;;;15.00;99.90;;;;;;5015444;28;20457;-83
2022/09/11 03:02:11;;;;;;;922.60;859.70;;;14.90;99.90;;;;;;5014808;28;20460;-84
2022/09/11 03:04:38;;;;;;;920.93;858.43;;;14.90;99.90;;;;;;5014646;28;20834;-83
2022/09/11 03:07:05;;;;;;;910.10;847.70;;;14.90;99.90;;;;;;5014579;28;20473;-84
2022/09/11 03:09:33;;;;;;;901.97;840.10;;;14.90;99.90;;;;;;5014283;28;20969;-84
2022/09/11 03:12:00;;;;;;;908.03;845.87;;;14.80;99.90;;;;;;5014319;28;20457;-83
2022/09/11 03:14:27;;;;;;;911.03;849.03;;;14.90;99.90;;;;;;5014739;28;20457;-84
2022/09/11 03:16:55;;;;;;;901.67;840.10;;;14.80;99.90;;;;;;5014230;28;20481;-84
2022/09/11 03:19:22;;;;;;;896.10;834.57;;;14.90;99.90;;;;;;5014354;28;20457;-83
2022/09/11 03:21:49;;;;;;;901.70;840.10;;;14.80;99.90;;;;;;5013987;28;21019;-83
2022/09/11 03:24:16;;;;;;;905.37;843.87;;;14.80;99.90;;;;;;5014111;28;20841;-83
2022/09/11 03:26:43;;;;;;;905.47;843.67;;;14.80;99.90;;;;;;5014280;28;20445;-84
2022/09/11 03:29:10;;;;;;;903.27;841.50;;;14.80;99.90;;;;;;5014330;28;20464;-84
2022/09/11 03:31:37;;;;;;;916.23;854.33;;;14.90;99.90;;;;;;5013528;28;20474;-84
2022/09/11 03:34:05;;;;;;;919.33;857.43;;;14.80;99.90;;;;;;5031890;28;20452;-84
2022/09/11 03:36:33;;;;;;;909.93;848.23;;;14.80;99.90;;;;;;5033311;28;20456;-84
2022/09/11 03:39:00;;;;;;;906.47;844.57;;;14.80;99.90;;;;;;5033933;28;20459;-83
2022/09/11 03:41:26;;;;;;;914.77;852.47;;;14.80;99.90;;;;;;5022009;28;20480;-84
2022/09/11 03:43:53;;;;;;;912.60;850.30;;;14.80;99.90;;;;;;5013981;28;20454;-84
2022/09/11 03:46:20;;;;;;;909.10;846.77;;;14.80;99.90;;;;;;5013451;28;20461;-83
2022/09/11 03:48:47;;;;;;;904.90;842.83;;;14.80;99.90;;;;;;5012997;28;20962;-83
2022/09/11 03:51:16;;;;;;;912.30;850.10;;;14.80;99.90;;;;;;5013600;28;20484;-83
2022/09/11 03:53:43;;;;;;;915.70;853.40;;;14.80;99.90;;;;;;5013927;28;20458;-83
2022/09/11 03:56:11;;;;;;;916.93;854.33;;;14.80;99.90;;;;;;5013545;28;20873;-83
2022/09/11 03:58:38;;;;;;;906.97;844.87;;;14.80;99.90;;;;;;5013616;28;20485;-83
2022/09/11 04:01:12;;;;;;;913.70;851.47;;;14.70;99.90;;;;;;5013400;28;20477;-83
2022/09/11 04:03:39;;;;;;;948.40;885.80;;;14.80;99.90;;;;;;5013563;28;21040;-84
2022/09/11 04:06:07;;;;;;;938.40;876.00;;;14.70;99.90;;;;;;5013328;28;20457;-83
2022/09/11 04:08:35;;;;;;;936.83;874.60;;;14.80;99.90;;;;;;5013668;28;20875;-83
2022/09/11 04:11:04;;;;;;;942.63;880.10;;;14.80;99.90;;;;;;5013098;28;20953;-83
2022/09/11 04:13:33;;;;;;;946.20;883.60;;;14.70;99.90;;;;;;5013470;28;20453;-84
2022/09/11 04:16:01;;;;;;;936.33;874.00;;;14.70;99.90;;;;;;5012843;28;20457;-83
2022/09/11 04:18:29;;;;;;;944.00;881.30;;;14.70;99.90;;;;;;5013358;28;20477;-84
2022/09/11 04:20:56;;;;;;;951.53;888.63;;;14.70;99.90;;;;;;5013175;28;20471;-83
2022/09/11 04:23:22;;;;;;;950.27;887.47;;;14.80;99.90;;;;;;5013122;28;20468;-84
2022/09/11 04:25:52;;;;;;;943.80;881.30;;;14.70;99.90;;;;;;5012545;28;20833;-83
2022/09/11 04:28:18;;;;;;;954.23;891.33;;;14.70;99.90;;;;;;5013021;28;20489;-83
2022/09/11 04:30:45;;;;;;;943.73;881.23;;;14.70;99.90;;;;;;5012780;28;20531;-83
2022/09/11 04:33:12;;;;;;;952.13;889.30;;;14.70;99.90;;;;;;5013039;28;20449;-81
2022/09/11 04:35:39;;;;;;;949.20;886.40;;;14.60;99.90;;;;;;5012161;28;20454;-81
2022/09/11 04:38:06;;;;;;;945.83;883.23;;;14.70;99.90;;;;;;5012816;28;20476;-81
2022/09/11 04:40:38;;;;;;;950.87;888.20;;;14.60;99.90;;;;;;5010550;28;20843;-83
2022/09/11 04:43:06;;;;;;;950.60;887.90;;;14.60;99.90;;;;;;5008457;28;20540;-83
2022/09/11 04:45:39;;;;;;;954.27;891.33;;;14.70;99.90;;;;;;5028317;28;20449;-83
2022/09/11 04:50:59;;;;;;;950.73;888.03;;;14.70;99.90;;;;;;5013043;28;20477;-83
2022/09/11 04:53:26;;;;;;;953.63;890.93;;;14.70;99.90;;;;;;5011751;28;20510;-85
2022/09/11 04:56:01;;;;;;;951.17;888.53;;;14.60;99.90;;;;;;5012110;28;21087;-84
2022/09/11 04:58:29;;;;;;;950.77;888.20;;;14.60;99.90;;;;;;5010881;28;20480;-83
2022/09/11 05:00:56;;;;;;;959.80;897.10;;;14.60;99.90;;;;;;5011139;28;20851;-83
2022/09/11 05:03:23;;;;;;;957.40;895.00;;;14.60;99.90;;;;;;5012503;28;20460;-84
2022/09/11 05:05:50;;;;;;;957.67;895.43;;;14.50;99.90;;;;;;5010445;28;20497;-84
2022/09/11 05:08:19;;;;;;;953.50;891.40;;;14.60;99.90;;;;;;5007692;28;20449;-84
2022/09/11 05:10:46;;;;;;;967.57;904.67;;;14.50;99.90;;;;;;5047837;23;20496;-82
2022/09/11 05:13:14;;;;;;;971.00;908.30;;;14.60;99.90;;;;;;5026786;28;20450;-82
2022/09/11 05:15:42;;;;;;;956.23;893.73;;;14.50;99.90;;;;;;5031415;28;20456;-82
2022/09/11 05:18:10;;;;;;;968.50;905.60;;;14.50;99.90;;;;;;5033891;28;20476;-81
2022/09/11 05:20:36;;;;;;;965.10;902.40;;;14.60;99.90;;;;;;5035335;28;20472;-81
2022/09/11 05:23:03;;;;;;;967.93;904.90;;;14.60;99.90;;;;;;5031339;28;20490;-82
2022/09/11 05:25:30;;;;;;;958.77;895.67;;;14.60;99.90;;;;;;5016893;28;20671;-81
2022/09/11 05:27:57;;;;;;;960.17;897.47;;;14.60;99.90;;;;;;5011808;28;20453;-81
2022/09/11 05:30:24;;;;;;;960.27;897.50;;;14.60;99.90;;;;;;5011923;28;20474;-82
2022/09/11 05:32:54;;;;;;;960.70;897.77;;;14.60;99.90;;;;;;5012218;28;20468;-81
2022/09/11 05:35:23;;;;;;;965.63;902.83;;;14.50;99.90;;;;;;5011713;28;20511;-80
2022/09/11 05:37:50;;;;;;;960.20;897.57;;;14.70;99.90;;;;;;5012182;28;20477;-82
2022/09/11 05:40:16;;;;;;;956.80;894.30;;;14.70;99.90;;;;;;5008955;28;20487;-81
2022/09/11 05:42:43;;;;;;;950.77;888.57;;;14.70;99.90;;;;;;4998900;28;20461;-82
2022/09/11 05:45:10;;;;;;;941.53;879.37;;;14.70;99.90;;;;;;5003513;28;20459;-85
2022/09/11 05:47:37;;;;;;;944.23;881.67;;;14.60;99.90;;;;;;5010973;28;20480;-82
2022/09/11 05:50:07;;;;;;;940.87;878.57;;;14.60;99.90;;;;;;5003531;28;20537;-82
2022/09/11 05:52:34;;;;;;;937.33;875.47;;;14.70;99.90;;;;;;5006119;28;20456;-82
2022/09/11 05:55:00;;;;;;;932.60;870.93;;;14.60;99.90;;;;;;5007102;28;20535;-82
2022/09/11 05:57:27;;;;;;;936.07;874.27;;;14.60;99.90;;;;;;5014512;28;20477;-82
2022/09/11 05:59:54;;;;;;;945.00;882.50;;;14.60;99.90;;;;;;5003693;28;20458;-82
2022/09/11 06:02:20;;;;;;;946.60;884.80;;;14.70;99.90;;;;;;5006757;28;20468;-82
2022/09/11 06:04:47;;;;;;;950.27;887.70;;;14.70;99.90;;;;;;5021728;28;20461;-82
2022/09/11 06:07:15;;;;;;;942.37;880.10;;;14.70;99.90;;;;;;5000218;28;20507;-81
2022/09/11 06:09:42;;;;;;;944.90;882.67;;;14.70;99.90;;;;;;5005259;28;20458;-82
2022/09/11 06:12:11;;;;;;;947.43;884.93;;;14.70;99.90;;;;;;5007054;28;20868;-83
2022/09/11 06:14:38;;;;;;;943.30;881.00;;;14.80;99.90;;;;;;5027336;28;20457;-82
2022/09/11 06:17:05;;;;;;;950.70;887.40;;;14.80;99.90;;;;;;5016646;28;20492;-82
2022/09/11 06:19:32;;;;;;;947.03;883.87;;;14.80;99.90;;;;;;5019123;28;20479;-83
2022/09/11 06:21:58;;;;;;;960.43;896.73;;;14.90;99.90;;;;;;5006394;28;20484;-83
2022/09/11 06:24:27;;;;;;;955.07;891.30;;;14.80;99.90;;;;;;5010761;28;20476;-82
2022/09/11 06:26:53;;;;;;;957.90;893.87;;;14.90;99.90;;;;;;5008714;28;20519;-82
2022/09/11 06:29:20;;;;;;;956.63;892.73;;;15.00;99.90;;;;;;4998328;28;20456;-84
2022/09/11 06:31:50;;;;;;;955.00;891.30;;;14.90;99.90;;;;;;4995682;28;20474;-83
2022/09/11 06:34:17;;;;;;;953.73;889.50;;;15.00;99.90;;;;;;5007657;28;20461;-82
2022/09/11 06:36:43;;;;;;;959.10;895.30;;;15.00;99.90;;;;;;5005564;28;20456;-81
2022/09/11 06:39:10;;;;;;;961.77;897.57;;;15.10;99.90;;;;;;5006809;28;20474;-82
2022/09/11 06:41:38;;;;;;;962.47;898.07;;;15.00;99.90;;;;;;5008014;28;20504;-82
2022/09/11 06:44:05;;;;;;;961.80;897.63;;;15.00;99.90;;;;;;5004331;28;20449;-82
2022/09/11 06:46:34;;;;;;;956.00;891.77;;;15.10;99.90;;;;;;5006735;28;20489;-82
2022/09/11 06:49:01;;;;;;;943.20;879.53;;;15.10;99.90;;;;;;5003994;28;20473;-82
2022/09/11 06:51:28;;;;;;;950.87;886.80;;;15.10;99.90;;;;;;4999931;28;20473;-80
2022/09/11 06:53:56;;;;;;;965.00;900.50;;;15.20;99.90;;;;;;5003402;28;20451;-82
2022/09/11 06:56:23;;;;;;;947.87;883.97;;;15.30;99.90;;;;;;4999570;28;20488;-84
2022/09/11 06:58:51;;;;;;;949.47;885.37;;;15.30;99.90;;;;;;5008057;28;20473;-83
2022/09/11 07:01:20;;;;;;;951.60;887.23;;;15.30;99.90;;;;;;5002704;28;20479;-83
2022/09/11 07:03:48;;;;;;;944.10;879.50;;;15.30;99.90;;;;;;5008357;28;20453;-82
2022/09/11 07:06:16;;;;;;;946.03;881.30;;;15.40;99.90;;;;;;5011916;28;20450;-82
2022/09/11 07:08:43;;;;;;;944.43;880.47;;;15.40;99.90;;;;;;5011757;28;20450;-82
2022/09/11 07:11:11;;;;;;;943.83;880.00;;;15.40;99.90;;;;;;5000024;28;20481;-83
2022/09/11 07:13:39;;;;;;;946.90;883.00;;;15.30;99.90;;;;;;4995962;28;20458;-82
2022/09/11 07:16:09;;;;;;;946.90;881.97;;;15.40;99.90;;;;;;4994344;28;20466;-83
2022/09/11 07:18:37;;;;;;;947.37;882.70;;;15.40;99.90;;;;;;5009876;28;20489;-82
2022/09/11 07:21:08;;;;;;;954.80;890.00;;;15.50;99.90;;;;;;5002971;28;20481;-84
2022/09/11 07:23:35;;;;;;;957.50;892.43;;;15.50;99.90;;;;;;4998886;28;20882;-81
2022/09/11 07:26:06;;;;;;;951.07;886.17;;;15.60;99.90;;;;;;4994981;28;20464;-83
2022/09/11 07:28:33;;;;;;;953.07;888.10;;;15.60;99.90;;;;;;4999745;28;21044;-83
2022/09/11 07:31:10;;;;;;;955.30;890.33;;;15.60;99.90;;;;;;5007023;28;20480;-85
2022/09/11 07:33:37;;;;;;;957.43;892.57;;;15.80;99.90;;;;;;5018161;28;20452;-83
2022/09/11 07:36:10;;;;;;;958.50;892.97;;;15.80;99.90;;;;;;5015160;28;20496;-81
2022/09/11 07:38:38;;;;;;;956.60;891.00;;;15.90;99.90;;;;;;5003207;28;20554;-84
2022/09/11 07:41:05;;;;;;;960.97;895.03;;;15.80;99.90;;;;;;4998674;28;20502;-84
2022/09/11 07:43:33;;;;;;;960.17;894.30;;;15.80;99.90;;;;;;5000822;28;20478;-84
2022/09/11 07:46:00;;;;;;;955.30;889.80;;;15.80;99.90;;;;;;5000737;28;20476;-83
2022/09/11 07:48:29;;;;;;;957.90;892.73;;;15.80;99.90;;;;;;5011450;28;20446;-83
2022/09/11 07:50:57;;;;;;;960.13;895.17;;;15.90;99.90;;;;;;5013615;28;20481;-84
2022/09/11 07:53:24;;;;;;;964.97;899.57;;;16.10;99.90;;;;;;5008485;28;20459;-84
2022/09/11 07:55:51;;;;;;;963.70;898.50;;;16.10;99.90;;;;;;5002893;28;20482;-84
2022/09/11 07:58:18;;;;;;;960.30;895.30;;;16.20;99.90;;;;;;5005574;28;20472;-83
2022/09/11 08:00:45;;;;;;;956.63;891.97;;;16.10;99.90;;;;;;5011029;28;20882;-84
2022/09/11 08:03:11;;;;;;;960.13;895.17;;;16.10;99.90;;;;;;5000674;28;20448;-83
2022/09/11 08:05:39;;;;;;;959.63;895.03;;;16.20;99.90;;;;;;5013372;28;20452;-84
2022/09/11 08:08:06;;;;;;;955.97;891.87;;;16.20;99.90;;;;;;5016771;28;20454;-83
2022/09/11 08:10:37;;;;;;;962.13;898.00;;;16.10;99.90;;;;;;5005908;28;20989;-82
2022/09/11 08:13:04;;;;;;;968.00;903.63;;;16.20;99.90;;;;;;5013663;28;20538;-84
2022/09/11 08:15:31;;;;;;;960.77;896.97;;;16.20;99.90;;;;;;5018144;28;20465;-85
2022/09/11 08:17:58;;;;;;;956.60;893.50;;;16.40;99.90;;;;;;5006434;28;20460;-85
2022/09/11 08:20:26;;;;;;;961.20;897.37;;;16.20;99.90;;;;;;5003337;28;20558;-85
2022/09/11 08:22:54;;;;;;;959.77;896.20;;;16.20;99.90;;;;;;5014934;28;20458;-84
2022/09/11 08:25:20;;;;;;;959.50;896.20;;;16.10;99.90;;;;;;5011747;28;20867;-85
2022/09/11 08:27:47;;;;;;;957.73;894.43;;;15.90;99.90;;;;;;4996029;28;20455;-83
2022/09/11 08:30:14;;;;;;;958.03;894.50;;;15.80;99.90;;;;;;4997036;28;20460;-84
2022/09/11 08:32:40;;;;;;;959.57;896.77;;;15.70;99.90;;;;;;5017059;28;20473;-84
2022/09/11 08:35:08;;;;;;;945.47;883.17;;;15.70;99.90;;;;;;5015262;28;20462;-85
2022/09/11 08:37:34;;;;;;;939.67;877.37;;;15.70;99.90;;;;;;4998331;28;20840;-85
2022/09/11 08:40:02;;;;;;;943.93;881.57;;;15.70;99.90;;;;;;4997321;28;20486;-84
2022/09/11 08:42:29;;;;;;;943.63;881.23;;;15.70;99.90;;;;;;5011301;28;20460;-85
2022/09/11 08:45:00;;;;;;;944.23;881.57;;;15.90;99.90;;;;;;4999760;28;20463;-84
2022/09/11 08:47:31;;;;;;;951.30;888.40;;;15.80;99.90;;;;;;4998351;28;20458;-84
2022/09/11 08:50:03;;;;;;;945.23;882.23;;;15.80;99.90;;;;;;5004946;28;20447;-85
2022/09/11 08:52:31;;;;;;;961.77;897.57;;;15.90;99.90;;;;;;5009184;28;20450;-86
2022/09/11 08:54:59;;;;;;;971.43;906.87;;;15.90;99.90;;;;;;5008766;28;20451;-84
2022/09/11 08:57:36;;;;;;;980.00;914.93;;;16.20;99.90;;;;;;4994392;28;20464;-84
2022/09/11 09:00:13;;;;;;;978.83;914.00;;;16.50;99.90;;;;;;4998478;28;20471;-85
2022/09/11 09:03:09;;;;;;;980.53;916.07;;;16.50;99.90;;;;;;4993440;28;20466;-84
2022/09/11 09:05:44;;;;;;;978.33;913.47;;;16.30;99.90;;;;;;4966902;28;20459;-84
2022/09/11 09:08:25;;;;;;;980.50;914.50;;;16.20;99.90;;;;;;4993283;28;20554;-84
2022/09/11 09:10:57;;;;;;;980.57;914.07;;;16.10;99.90;;;;;;5005100;28;20498;-84
2022/09/11 09:13:45;;;;;;;985.53;919.43;;;16.10;99.90;;;;;;4993229;28;20461;-85
2022/09/11 09:16:24;;;;;;;983.67;917.73;;;16.00;99.90;;;;;;5004369;28;20452;-84
2022/09/11 09:18:57;;;;;;;980.00;914.40;;;16.10;99.90;;;;;;4997659;28;20515;-84
2022/09/11 09:21:30;;;;;;;974.87;910.17;;;16.10;99.90;;;;;;5010083;28;20475;-85
2022/09/11 09:24:00;;;;;;;970.80;906.20;;;16.10;99.90;;;;;;5003593;28;20485;-84
2022/09/11 09:26:33;;;;;;;968.37;904.93;;;16.20;99.90;;;;;;5004220;28;20450;-85
2022/09/11 09:29:04;;;;;;;970.47;907.07;;;16.10;99.90;;;;;;4996115;28;20469;-85
2022/09/11 09:31:32;;;;;;;970.90;907.10;;;16.20;99.90;;;;;;5008205;28;20479;-85
2022/09/11 09:34:02;;;;;;;979.10;914.33;;;16.30;99.90;;;;;;5012186;28;20455;-87
2022/09/11 09:36:33;;;;;;;976.87;912.80;;;16.40;99.90;;;;;;5034104;28;20460;-85
2022/09/11 09:39:00;;;;;;;984.20;919.73;;;16.30;99.90;;;;;;5021850;28;20487;-85
2022/09/11 09:41:49;;;;;;;976.53;912.70;;;16.50;99.90;;;;;;5033088;28;20481;-85
2022/09/11 09:44:32;;;;;;;972.90;908.70;;;16.40;99.90;;;;;;5035687;28;20454;-85
2022/09/11 09:46:59;;;;;;;974.50;910.60;;;16.50;99.90;;;;;;5035025;28;20462;-85
2022/09/11 09:49:29;;;;;;;974.57;910.37;;;16.70;99.90;;;;;;5003318;28;20456;-84
2022/09/11 09:51:58;;;;;;;963.97;899.57;;;16.80;99.90;;;;;;4999304;28;20853;-84
2022/09/11 09:54:28;;;;;;;962.10;898.23;;;16.80;99.90;;;;;;5011635;28;20901;-85
2022/09/11 09:57:01;;;;;;;953.87;891.57;;;16.90;99.90;;;;;;5016909;28;20820;-85
2022/09/11 09:59:35;;;;;;;950.73;888.93;;;17.10;99.90;;;;;;5010999;28;20548;-85
2022/09/11 10:02:01;;;;;;;931.90;871.50;;;17.30;99.90;;;;;;5000701;28;20899;-84
2022/09/11 10:04:29;;;;;;;905.77;848.40;;;17.70;99.90;;;;;;5009355;28;20467;-85
2022/09/11 10:07:06;;;;;;;896.20;840.00;;;18.00;99.90;;;;;;5009432;28;20868;-84
2022/09/11 10:09:34;;;;;;;787.97;738.40;;;17.90;99.90;;;;;;4995672;28;20459;-85
2022/09/11 10:12:05;;;;;;;785.33;734.33;;;18.00;99.90;;;;;;5000269;28;20482;-84
2022/09/11 10:14:37;;;;;;;769.53;720.77;;;18.60;99.90;;;;;;5010341;28;20452;-85
2022/09/11 10:17:04;;;;;;;666.13;627.50;;;19.30;99.90;;;;;;5015099;28;20459;-84
2022/09/11 10:19:37;;;;;;;665.30;627.87;;;19.50;99.90;;;;;;5009015;28;20850;-85
2022/09/11 10:22:25;;;;;;;681.63;644.47;;;19.60;99.90;;;;;;5005048;28;20472;-85
2022/09/11 10:25:04;;;;;;;631.03;598.23;;;19.30;99.60;;;;;;4996740;28;20541;-85
2022/09/11 10:27:35;;;;;;;506.27;483.27;;;19.70;99.50;;;;;;5003753;28;20454;-86
2022/09/11 10:30:04;;;;;;;506.90;484.70;;;19.70;97.30;;;;;;5000634;28;20476;-85
2022/09/11 10:32:36;;;;;;;491.30;470.90;;;20.00;97.00;;;;;;5005674;28;20475;-84
2022/09/11 10:35:08;;;;;;;420.17;403.67;;;20.40;94.70;;;;;;5005285;28;20453;-86
2022/09/11 10:37:35;;;;;;;330.70;318.20;;;21.00;95.40;;;;;;4998090;28;20998;-85
2022/09/11 10:40:26;;;;;;;323.27;311.37;;;21.10;92.80;;;;;;5011297;28;20473;-84
2022/09/11 10:42:53;;;;;;;285.50;275.40;;;21.20;91.80;;;;;;4999769;28;20448;-84
2022/09/11 10:45:23;;;;;;;250.07;241.70;;;21.70;90.40;;;;;;5003098;28;20603;-85
2022/09/11 10:47:50;;;;;;;192.13;185.83;;;22.20;87.40;;;;;;5012002;28;20473;-85
2022/09/11 10:50:23;;;;;;;156.93;151.73;;;22.80;86.50;;;;;;5002979;28;20449;-84
2022/09/11 10:53:12;;;;;;;117.23;113.30;;;22.90;80.70;;;;;;5006944;28;20454;-85
2022/09/11 10:55:43;;;;;;;56.77;54.73;;;23.00;77.50;;;;;;5000438;28;20829;-85
2022/09/11 10:58:16;;;;;;;25.97;24.80;;;23.20;79.70;;;;;;5002693;28;20454;-84
2022/09/11 11:00:44;;;;;;;13.80;13.00;;;22.80;79.70;;;;;;4999518;28;20505;-84
2022/09/11 11:03:54;;;;;;;10.17;9.20;;;22.40;82.00;;;;;;5013283;28;20495;-86
2022/09/11 11:10:41;;;;;;;4.33;3.93;;;21.30;83.50;;;;;;4967852;28;20469;-85
2022/09/11 11:13:20;;;;;;;4.10;3.70;;;21.60;81.10;;;;;;5080806;23;20497;-84
2022/09/11 11:16:04;;;;;;;4.53;4.13;;;21.50;84.00;;;;;;5020624;28;20450;-84
2022/09/11 11:18:53;;;;;;;3.70;3.03;;;22.40;80.30;;;;;;5027518;28;20440;-84
2022/09/11 11:21:32;;;;;;;3.90;2.83;;;22.00;80.00;;;;;;5039997;28;20448;-84
2022/09/11 11:24:12;;;;;;;5.30;3.67;;;22.00;81.30;;;;;;5039821;28;20487;-83
2022/09/11 11:26:57;;;;;;;3.60;2.90;;;23.20;73.90;;;;;;5041380;28;20436;-85
2022/09/11 11:29:50;;;;;;;3.97;2.43;;;24.50;71.30;;;;;;5041077;28;20472;-84
2022/09/11 11:32:34;;;;;;;3.30;1.73;;;24.30;64.30;;;;;;5040618;28;20468;-84
2022/09/11 11:35:21;;;;;;;4.03;1.67;;;24.90;66.40;;;;;;5024282;28;20524;-83
2022/09/11 11:37:49;;;;;;;3.43;1.60;;;23.80;68.50;;;;;;5020846;28;20445;-84
2022/09/11 11:40:26;;;;;;;4.57;3.47;;;22.60;74.30;;;;;;5019967;28;20453;-84
2022/09/11 11:42:58;;;;;;;3.97;1.30;;;22.60;75.60;;;;;;5021014;28;20702;-83
2022/09/11 11:45:30;;;;;;;4.00;2.20;;;23.40;73.20;;;;;;5020045;28;20520;-84
2022/09/11 11:48:00;;;;;;;3.73;1.93;;;23.20;72.70;;;;;;5018579;28;20453;-83
2022/09/11 11:50:33;;;;;;;3.20;1.03;;;23.50;69.20;;;;;;5019507;28;20481;-84
2022/09/11 11:53:07;;;;;;;3.63;1.40;;;24.00;66.50;;;;;;5019573;28;20473;-84
2022/09/11 11:55:44;;;;;;;3.23;0.93;;;23.90;64.70;;;;;;5019747;28;20448;-84
2022/09/11 11:58:19;;;;;;;3.40;0.90;;;24.30;62.20;;;;;;5019376;28;20448;-84
2022/09/11 12:00:49;;;;;;;3.17;0.70;;;24.90;60.90;;;;;;5019332;28;20437;-84
2022/09/11 12:03:23;;;;;;;3.20;0.70;;;24.90;54.20;;;;;;5019349;28;20473;-84
2022/09/11 12:05:50;;;;;;;3.40;0.90;;;26.70;51.50;;;;;;5019078;28;20445;-84
2022/09/11 12:08:17;;;;;;;3.50;0.83;;;26.10;50.40;;;;;;5019817;28;20485;-84
2022/09/11 12:10:53;;;;;;;3.20;0.60;;;26.20;48.70;;;;;;5012620;28;20470;-83
2022/09/11 12:13:20;;;;;;;3.10;0.60;;;26.40;51.30;;;;;;4999951;28;20485;-85
2022/09/11 12:16:02;;;;;;;3.20;0.70;;;26.10;48.40;;;;;;4999004;28;20457;-84
2022/09/11 12:18:31;;;;;;;3.20;0.60;;;26.70;41.20;;;;;;4999751;28;20457;-84
2022/09/11 12:21:31;;;;;;;3.20;0.60;;;26.60;42.50;;;;;;5012838;28;20485;-84
2022/09/11 12:24:19;;;;;;;3.53;1.00;;;26.90;39.90;;;;;;5019257;28;20460;-85
2022/09/11 12:26:47;;;;;;;3.30;0.80;;;25.90;40.60;;;;;;5019831;28;20460;-85
2022/09/11 12:29:50;;;;;;;3.30;0.50;;;25.10;44.20;;;;;;5018443;28;20453;-84
2022/09/11 12:32:27;;;;;;;3.30;0.50;;;24.60;46.10;;;;;;5019007;28;20906;-84
2022/09/11 12:35:14;;;;;;;3.40;0.77;;;23.80;50.20;;;;;;5017919;28;20444;-84
2022/09/11 12:37:41;;;;;;;4.00;0.90;;;23.70;51.80;;;;;;5019347;28;20943;-84
2022/09/11 12:40:17;;;;;;;3.40;0.60;;;22.90;55.10;;;;;;5019711;28;20457;-83